sensor_id;sensor_type;location;lat;lon;timestamp;P1;durP1;ratioP1;P2;durP2;ratioP2
50309;SDS011;36207;51.850;21.698;2023-04-25T00:01:35;15.00;;;11.20;;
50309;SDS011;36207;51.850;21.698;2023-04-25T00:04:02;16.40;;;11.60;;
50309;SDS011;36207;51.850;21.698;2023-04-25T00:06:28;14.60;;;10.90;;
50309;SDS011;36207;51.850;21.698;2023-04-25T00:08:57;14.90;;;11.10;;
50309;SDS011;36207;51.850;21.698;2023-04-25T00:11:24;16.40;;;12.10;;
50309;SDS011;36207;51.850;21.698;2023-04-25T00:13:50;21.40;;;12.30;;
50309;SDS011;36207;51.850;21.698;2023-04-25T00:16:16;13.70;;;10.50;;
50309;SDS011;36207;51.850;21.698;2023-04-25T00:18:43;15.20;;;11.30;;
50309;SDS011;36207;51.850;21.698;2023-04-25T00:21:12;14.40;;;11.20;;
50309;SDS011;36207;51.850;21.698;2023-04-25T00:23:38;15.70;;;11.60;;
50309;SDS011;36207;51.850;21.698;2023-04-25T00:26:05;15.00;;;11.20;;
50309;SDS011;36207;51.850;21.698;2023-04-25T00:28:31;14.50;;;11.00;;
50309;SDS011;36207;51.850;21.698;2023-04-25T00:30:57;16.30;;;12.30;;
50309;SDS011;36207;51.850;21.698;2023-04-25T00:33:24;16.30;;;12.30;;
50309;SDS011;36207;51.850;21.698;2023-04-25T00:35:50;16.60;;;12.50;;
50309;SDS011;36207;51.850;21.698;2023-04-25T00:38:16;15.50;;;12.00;;
50309;SDS011;36207;51.850;21.698;2023-04-25T00:40:43;15.40;;;12.60;;
50309;SDS011;36207;51.850;21.698;2023-04-25T00:43:09;15.90;;;12.30;;
50309;SDS011;36207;51.850;21.698;2023-04-25T00:45:37;14.80;;;11.50;;
50309;SDS011;36207;51.850;21.698;2023-04-25T00:48:04;15.70;;;12.10;;
50309;SDS011;36207;51.850;21.698;2023-04-25T00:50:33;16.40;;;12.20;;
50309;SDS011;36207;51.850;21.698;2023-04-25T00:53:00;17.60;;;12.90;;
50309;SDS011;36207;51.850;21.698;2023-04-25T00:55:28;16.40;;;12.40;;
50309;SDS011;36207;51.850;21.698;2023-04-25T00:57:57;16.40;;;13.10;;
50309;SDS011;36207;51.850;21.698;2023-04-25T01:00:23;12.70;;;10.30;;
50309;SDS011;36207;51.850;21.698;2023-04-25T01:02:50;13.00;;;10.60;;
50309;SDS011;36207;51.850;21.698;2023-04-25T01:05:17;16.90;;;11.50;;
50309;SDS011;36207;51.850;21.698;2023-04-25T01:07:44;14.60;;;12.20;;
50309;SDS011;36207;51.850;21.698;2023-04-25T01:10:11;15.90;;;11.70;;
50309;SDS011;36207;51.850;21.698;2023-04-25T01:12:37;16.10;;;12.30;;
50309;SDS011;36207;51.850;21.698;2023-04-25T01:15:04;15.40;;;12.30;;
50309;SDS011;36207;51.850;21.698;2023-04-25T01:17:34;13.50;;;11.60;;
50309;SDS011;36207;51.850;21.698;2023-04-25T01:20:03;15.00;;;11.70;;
50309;SDS011;36207;51.850;21.698;2023-04-25T01:22:31;15.50;;;12.00;;
50309;SDS011;36207;51.850;21.698;2023-04-25T01:24:58;18.70;;;12.80;;
50309;SDS011;36207;51.850;21.698;2023-04-25T01:27:25;14.60;;;12.50;;
50309;SDS011;36207;51.850;21.698;2023-04-25T01:29:54;15.70;;;13.40;;
50309;SDS011;36207;51.850;21.698;2023-04-25T01:32:22;16.60;;;12.10;;
50309;SDS011;36207;51.850;21.698;2023-04-25T01:34:49;18.30;;;11.80;;
50309;SDS011;36207;51.850;21.698;2023-04-25T01:37:16;14.30;;;11.60;;
50309;SDS011;36207;51.850;21.698;2023-04-25T01:39:43;14.60;;;11.80;;
50309;SDS011;36207;51.850;21.698;2023-04-25T01:42:10;15.60;;;12.20;;
50309;SDS011;36207;51.850;21.698;2023-04-25T01:44:37;19.50;;;12.40;;
50309;SDS011;36207;51.850;21.698;2023-04-25T01:47:03;16.90;;;12.40;;
50309;SDS011;36207;51.850;21.698;2023-04-25T01:49:29;16.00;;;11.90;;
50309;SDS011;36207;51.850;21.698;2023-04-25T01:51:56;15.10;;;11.90;;
50309;SDS011;36207;51.850;21.698;2023-04-25T01:54:22;17.20;;;12.20;;
50309;SDS011;36207;51.850;21.698;2023-04-25T01:56:51;15.90;;;12.70;;
50309;SDS011;36207;51.850;21.698;2023-04-25T01:59:18;16.10;;;12.50;;
50309;SDS011;36207;51.850;21.698;2023-04-25T02:01:46;17.00;;;12.50;;
50309;SDS011;36207;51.850;21.698;2023-04-25T02:04:12;16.00;;;13.20;;
50309;SDS011;36207;51.850;21.698;2023-04-25T02:06:38;17.40;;;13.20;;
50309;SDS011;36207;51.850;21.698;2023-04-25T02:09:05;18.80;;;13.80;;
50309;SDS011;36207;51.850;21.698;2023-04-25T02:11:31;17.70;;;12.70;;
50309;SDS011;36207;51.850;21.698;2023-04-25T02:13:57;18.10;;;14.00;;
50309;SDS011;36207;51.850;21.698;2023-04-25T02:16:24;18.60;;;13.20;;
50309;SDS011;36207;51.850;21.698;2023-04-25T02:18:51;16.80;;;12.90;;
50309;SDS011;36207;51.850;21.698;2023-04-25T02:21:18;15.20;;;12.00;;
50309;SDS011;36207;51.850;21.698;2023-04-25T02:23:45;15.40;;;12.60;;
50309;SDS011;36207;51.850;21.698;2023-04-25T02:26:14;19.10;;;14.10;;
50309;SDS011;36207;51.850;21.698;2023-04-25T02:28:41;18.30;;;13.70;;
50309;SDS011;36207;51.850;21.698;2023-04-25T02:31:07;15.80;;;12.40;;
50309;SDS011;36207;51.850;21.698;2023-04-25T02:33:33;14.10;;;12.00;;
50309;SDS011;36207;51.850;21.698;2023-04-25T02:36:00;16.10;;;12.00;;
50309;SDS011;36207;51.850;21.698;2023-04-25T02:38:26;12.80;;;11.00;;
50309;SDS011;36207;51.850;21.698;2023-04-25T02:40:53;12.10;;;10.30;;
50309;SDS011;36207;51.850;21.698;2023-04-25T02:43:19;14.20;;;11.00;;
50309;SDS011;36207;51.850;21.698;2023-04-25T02:45:46;13.50;;;10.70;;
50309;SDS011;36207;51.850;21.698;2023-04-25T02:48:13;13.40;;;11.20;;
50309;SDS011;36207;51.850;21.698;2023-04-25T02:50:39;14.80;;;12.00;;
50309;SDS011;36207;51.850;21.698;2023-04-25T02:53:05;14.00;;;12.30;;
50309;SDS011;36207;51.850;21.698;2023-04-25T02:55:32;16.50;;;13.30;;
50309;SDS011;36207;51.850;21.698;2023-04-25T02:57:58;13.80;;;12.30;;
50309;SDS011;36207;51.850;21.698;2023-04-25T03:00:25;14.50;;;12.00;;
50309;SDS011;36207;51.850;21.698;2023-04-25T03:02:51;17.40;;;14.60;;
50309;SDS011;36207;51.850;21.698;2023-04-25T03:05:17;16.30;;;13.80;;
50309;SDS011;36207;51.850;21.698;2023-04-25T03:07:44;17.60;;;13.90;;
50309;SDS011;36207;51.850;21.698;2023-04-25T03:10:12;15.60;;;13.00;;
50309;SDS011;36207;51.850;21.698;2023-04-25T03:12:38;17.00;;;14.20;;
50309;SDS011;36207;51.850;21.698;2023-04-25T03:15:05;32.80;;;18.50;;
50309;SDS011;36207;51.850;21.698;2023-04-25T03:17:32;56.80;;;25.00;;
50309;SDS011;36207;51.850;21.698;2023-04-25T03:19:58;99.90;;;35.80;;
50309;SDS011;36207;51.850;21.698;2023-04-25T03:22:24;90.10;;;32.80;;
50309;SDS011;36207;51.850;21.698;2023-04-25T03:24:51;82.70;;;31.90;;
50309;SDS011;36207;51.850;21.698;2023-04-25T03:27:17;87.50;;;32.40;;
50309;SDS011;36207;51.850;21.698;2023-04-25T03:29:43;76.30;;;30.80;;
50309;SDS011;36207;51.850;21.698;2023-04-25T03:32:10;59.70;;;27.10;;
50309;SDS011;36207;51.850;21.698;2023-04-25T03:34:36;52.50;;;23.60;;
50309;SDS011;36207;51.850;21.698;2023-04-25T03:37:03;37.30;;;20.10;;
50309;SDS011;36207;51.850;21.698;2023-04-25T03:39:29;19.40;;;13.30;;
50309;SDS011;36207;51.850;21.698;2023-04-25T03:41:56;19.60;;;14.50;;
50309;SDS011;36207;51.850;21.698;2023-04-25T03:44:22;17.20;;;14.50;;
50309;SDS011;36207;51.850;21.698;2023-04-25T03:46:50;16.30;;;14.20;;
50309;SDS011;36207;51.850;21.698;2023-04-25T03:49:16;18.30;;;14.40;;
50309;SDS011;36207;51.850;21.698;2023-04-25T03:51:42;18.60;;;13.70;;
50309;SDS011;36207;51.850;21.698;2023-04-25T03:54:09;17.60;;;14.00;;
50309;SDS011;36207;51.850;21.698;2023-04-25T03:56:35;16.10;;;13.60;;
50309;SDS011;36207;51.850;21.698;2023-04-25T03:59:01;17.30;;;14.10;;
50309;SDS011;36207;51.850;21.698;2023-04-25T04:01:28;16.20;;;13.80;;
50309;SDS011;36207;51.850;21.698;2023-04-25T04:03:55;18.10;;;14.80;;
50309;SDS011;36207;51.850;21.698;2023-04-25T04:06:21;17.60;;;14.90;;
50309;SDS011;36207;51.850;21.698;2023-04-25T04:08:47;19.40;;;15.50;;
50309;SDS011;36207;51.850;21.698;2023-04-25T04:11:14;20.30;;;15.50;;
50309;SDS011;36207;51.850;21.698;2023-04-25T04:13:40;19.40;;;15.40;;
50309;SDS011;36207;51.850;21.698;2023-04-25T04:16:06;19.60;;;15.40;;
50309;SDS011;36207;51.850;21.698;2023-04-25T04:18:33;18.50;;;15.30;;
50309;SDS011;36207;51.850;21.698;2023-04-25T04:21:00;16.80;;;14.50;;
50309;SDS011;36207;51.850;21.698;2023-04-25T04:23:26;20.60;;;15.50;;
50309;SDS011;36207;51.850;21.698;2023-04-25T04:25:54;20.70;;;16.70;;
50309;SDS011;36207;51.850;21.698;2023-04-25T04:28:22;21.10;;;16.30;;
50309;SDS011;36207;51.850;21.698;2023-04-25T04:30:48;19.20;;;15.40;;
50309;SDS011;36207;51.850;21.698;2023-04-25T04:33:16;18.90;;;15.20;;
50309;SDS011;36207;51.850;21.698;2023-04-25T04:35:45;20.70;;;15.90;;
50309;SDS011;36207;51.850;21.698;2023-04-25T04:38:13;19.10;;;15.00;;
50309;SDS011;36207;51.850;21.698;2023-04-25T04:40:41;18.50;;;14.70;;
50309;SDS011;36207;51.850;21.698;2023-04-25T04:43:10;18.80;;;14.60;;
50309;SDS011;36207;51.850;21.698;2023-04-25T04:45:37;20.60;;;14.60;;
50309;SDS011;36207;51.850;21.698;2023-04-25T04:48:06;18.30;;;14.40;;
50309;SDS011;36207;51.850;21.698;2023-04-25T04:50:33;17.40;;;13.70;;
50309;SDS011;36207;51.850;21.698;2023-04-25T04:52:59;17.10;;;13.60;;
50309;SDS011;36207;51.850;21.698;2023-04-25T04:55:26;17.60;;;14.10;;
50309;SDS011;36207;51.850;21.698;2023-04-25T04:57:52;19.60;;;13.90;;
50309;SDS011;36207;51.850;21.698;2023-04-25T05:00:19;18.90;;;14.20;;
50309;SDS011;36207;51.850;21.698;2023-04-25T05:02:46;17.90;;;13.60;;
50309;SDS011;36207;51.850;21.698;2023-04-25T05:05:12;17.00;;;13.70;;
50309;SDS011;36207;51.850;21.698;2023-04-25T05:07:39;19.50;;;13.00;;
50309;SDS011;36207;51.850;21.698;2023-04-25T05:10:05;16.80;;;13.40;;
50309;SDS011;36207;51.850;21.698;2023-04-25T05:12:32;16.90;;;13.40;;
50309;SDS011;36207;51.850;21.698;2023-04-25T05:14:58;18.00;;;14.00;;
50309;SDS011;36207;51.850;21.698;2023-04-25T05:17:26;17.50;;;13.70;;
50309;SDS011;36207;51.850;21.698;2023-04-25T05:19:52;16.90;;;13.30;;
50309;SDS011;36207;51.850;21.698;2023-04-25T05:22:18;18.80;;;14.10;;
50309;SDS011;36207;51.850;21.698;2023-04-25T05:24:44;20.20;;;14.10;;
50309;SDS011;36207;51.850;21.698;2023-04-25T05:27:11;17.60;;;13.10;;
50309;SDS011;36207;51.850;21.698;2023-04-25T05:29:37;17.70;;;13.10;;
50309;SDS011;36207;51.850;21.698;2023-04-25T05:32:04;17.80;;;13.10;;
50309;SDS011;36207;51.850;21.698;2023-04-25T05:34:31;16.40;;;12.70;;
50309;SDS011;36207;51.850;21.698;2023-04-25T05:36:57;16.10;;;13.00;;
50309;SDS011;36207;51.850;21.698;2023-04-25T05:39:23;16.90;;;12.00;;
50309;SDS011;36207;51.850;21.698;2023-04-25T05:41:50;15.70;;;12.10;;
50309;SDS011;36207;51.850;21.698;2023-04-25T05:44:16;14.50;;;11.80;;
50309;SDS011;36207;51.850;21.698;2023-04-25T05:46:43;16.10;;;12.20;;
50309;SDS011;36207;51.850;21.698;2023-04-25T05:49:09;16.40;;;12.40;;
50309;SDS011;36207;51.850;21.698;2023-04-25T05:51:35;14.30;;;12.20;;
50309;SDS011;36207;51.850;21.698;2023-04-25T05:54:02;14.50;;;11.40;;
50309;SDS011;36207;51.850;21.698;2023-04-25T05:56:28;14.70;;;11.90;;
50309;SDS011;36207;51.850;21.698;2023-04-25T05:58:54;16.20;;;11.50;;
50309;SDS011;36207;51.850;21.698;2023-04-25T06:01:22;15.90;;;11.70;;
50309;SDS011;36207;51.850;21.698;2023-04-25T06:03:49;14.90;;;11.60;;
50309;SDS011;36207;51.850;21.698;2023-04-25T06:06:17;17.60;;;12.70;;
50309;SDS011;36207;51.850;21.698;2023-04-25T06:08:43;16.40;;;11.60;;
50309;SDS011;36207;51.850;21.698;2023-04-25T06:11:09;15.40;;;10.90;;
50309;SDS011;36207;51.850;21.698;2023-04-25T06:13:36;16.10;;;11.50;;
50309;SDS011;36207;51.850;21.698;2023-04-25T06:16:02;15.10;;;11.10;;
50309;SDS011;36207;51.850;21.698;2023-04-25T06:18:29;13.40;;;11.10;;
50309;SDS011;36207;51.850;21.698;2023-04-25T06:20:56;16.20;;;11.10;;
50309;SDS011;36207;51.850;21.698;2023-04-25T06:23:22;12.60;;;10.00;;
50309;SDS011;36207;51.850;21.698;2023-04-25T06:25:48;15.70;;;10.40;;
50309;SDS011;36207;51.850;21.698;2023-04-25T06:28:15;13.70;;;10.20;;
50309;SDS011;36207;51.850;21.698;2023-04-25T06:30:41;16.20;;;10.40;;
50309;SDS011;36207;51.850;21.698;2023-04-25T06:33:07;14.30;;;9.90;;
50309;SDS011;36207;51.850;21.698;2023-04-25T06:35:34;15.70;;;9.80;;
50309;SDS011;36207;51.850;21.698;2023-04-25T06:38:01;14.60;;;10.40;;
50309;SDS011;36207;51.850;21.698;2023-04-25T06:40:27;12.20;;;10.00;;
50309;SDS011;36207;51.850;21.698;2023-04-25T06:42:53;15.10;;;10.50;;
50309;SDS011;36207;51.850;21.698;2023-04-25T06:45:20;14.20;;;10.60;;
50309;SDS011;36207;51.850;21.698;2023-04-25T06:47:46;17.70;;;10.50;;
50309;SDS011;36207;51.850;21.698;2023-04-25T06:50:12;14.80;;;10.20;;
50309;SDS011;36207;51.850;21.698;2023-04-25T06:52:39;14.40;;;10.50;;
50309;SDS011;36207;51.850;21.698;2023-04-25T06:55:05;13.70;;;11.40;;
50309;SDS011;36207;51.850;21.698;2023-04-25T06:57:32;14.00;;;11.30;;
50309;SDS011;36207;51.850;21.698;2023-04-25T06:59:58;14.70;;;11.20;;
50309;SDS011;36207;51.850;21.698;2023-04-25T07:02:24;13.60;;;10.70;;
50309;SDS011;36207;51.850;21.698;2023-04-25T07:04:50;17.50;;;10.30;;
50309;SDS011;36207;51.850;21.698;2023-04-25T07:07:17;15.30;;;10.00;;
50309;SDS011;36207;51.850;21.698;2023-04-25T07:09:43;13.30;;;10.20;;
50309;SDS011;36207;51.850;21.698;2023-04-25T07:12:09;12.50;;;9.80;;
50309;SDS011;36207;51.850;21.698;2023-04-25T07:14:36;12.50;;;9.50;;
50309;SDS011;36207;51.850;21.698;2023-04-25T07:17:02;10.80;;;9.00;;
50309;SDS011;36207;51.850;21.698;2023-04-25T07:19:28;11.00;;;8.70;;
50309;SDS011;36207;51.850;21.698;2023-04-25T07:21:55;13.00;;;8.70;;
50309;SDS011;36207;51.850;21.698;2023-04-25T07:24:21;11.30;;;8.70;;
50309;SDS011;36207;51.850;21.698;2023-04-25T07:26:48;11.20;;;9.10;;
50309;SDS011;36207;51.850;21.698;2023-04-25T07:29:14;11.90;;;8.90;;
50309;SDS011;36207;51.850;21.698;2023-04-25T07:31:40;12.90;;;8.50;;
50309;SDS011;36207;51.850;21.698;2023-04-25T07:34:07;11.10;;;8.10;;
50309;SDS011;36207;51.850;21.698;2023-04-25T07:36:33;10.30;;;7.80;;
50309;SDS011;36207;51.850;21.698;2023-04-25T07:39:00;9.80;;;8.20;;
50309;SDS011;36207;51.850;21.698;2023-04-25T07:41:26;11.60;;;7.70;;
50309;SDS011;36207;51.850;21.698;2023-04-25T07:43:52;10.60;;;7.90;;
50309;SDS011;36207;51.850;21.698;2023-04-25T07:46:18;9.50;;;7.30;;
50309;SDS011;36207;51.850;21.698;2023-04-25T07:48:45;10.70;;;7.10;;
50309;SDS011;36207;51.850;21.698;2023-04-25T07:51:11;8.60;;;6.40;;
50309;SDS011;36207;51.850;21.698;2023-04-25T07:53:37;8.70;;;6.60;;
50309;SDS011;36207;51.850;21.698;2023-04-25T07:56:04;8.00;;;5.80;;
50309;SDS011;36207;51.850;21.698;2023-04-25T07:58:30;8.70;;;5.60;;
50309;SDS011;36207;51.850;21.698;2023-04-25T08:00:56;8.70;;;5.50;;
50309;SDS011;36207;51.850;21.698;2023-04-25T08:03:23;7.10;;;5.50;;
50309;SDS011;36207;51.850;21.698;2023-04-25T08:05:49;7.90;;;5.20;;
50309;SDS011;36207;51.850;21.698;2023-04-25T08:08:16;6.40;;;4.90;;
50309;SDS011;36207;51.850;21.698;2023-04-25T08:10:42;7.60;;;5.30;;
50309;SDS011;36207;51.850;21.698;2023-04-25T08:13:09;9.90;;;5.50;;
50309;SDS011;36207;51.850;21.698;2023-04-25T08:15:35;9.90;;;5.90;;
50309;SDS011;36207;51.850;21.698;2023-04-25T08:18:02;7.30;;;5.80;;
50309;SDS011;36207;51.850;21.698;2023-04-25T08:20:28;10.80;;;5.80;;
50309;SDS011;36207;51.850;21.698;2023-04-25T08:22:55;9.10;;;5.90;;
50309;SDS011;36207;51.850;21.698;2023-04-25T08:25:21;7.90;;;5.50;;
50309;SDS011;36207;51.850;21.698;2023-04-25T08:27:48;7.40;;;5.70;;
50309;SDS011;36207;51.850;21.698;2023-04-25T08:30:14;7.70;;;5.90;;
50309;SDS011;36207;51.850;21.698;2023-04-25T08:32:40;8.10;;;6.20;;
50309;SDS011;36207;51.850;21.698;2023-04-25T08:35:07;8.90;;;6.60;;
50309;SDS011;36207;51.850;21.698;2023-04-25T08:37:34;8.40;;;6.80;;
50309;SDS011;36207;51.850;21.698;2023-04-25T08:40:00;9.40;;;6.50;;
50309;SDS011;36207;51.850;21.698;2023-04-25T08:42:27;8.40;;;6.30;;
50309;SDS011;36207;51.850;21.698;2023-04-25T08:44:54;11.10;;;6.50;;
50309;SDS011;36207;51.850;21.698;2023-04-25T08:47:22;9.50;;;6.40;;
50309;SDS011;36207;51.850;21.698;2023-04-25T08:49:49;8.20;;;6.30;;
50309;SDS011;36207;51.850;21.698;2023-04-25T08:52:21;7.70;;;6.10;;
50309;SDS011;36207;51.850;21.698;2023-04-25T08:54:50;7.80;;;5.80;;
50309;SDS011;36207;51.850;21.698;2023-04-25T08:57:18;7.90;;;5.60;;
50309;SDS011;36207;51.850;21.698;2023-04-25T08:59:46;7.60;;;5.70;;
50309;SDS011;36207;51.850;21.698;2023-04-25T09:02:14;7.80;;;6.10;;
50309;SDS011;36207;51.850;21.698;2023-04-25T09:04:45;9.20;;;6.70;;
50309;SDS011;36207;51.850;21.698;2023-04-25T09:07:11;9.40;;;6.90;;
50309;SDS011;36207;51.850;21.698;2023-04-25T09:09:38;8.50;;;6.70;;
50309;SDS011;36207;51.850;21.698;2023-04-25T09:12:05;10.00;;;6.90;;
50309;SDS011;36207;51.850;21.698;2023-04-25T09:14:32;9.40;;;6.60;;
50309;SDS011;36207;51.850;21.698;2023-04-25T09:16:59;9.50;;;6.30;;
50309;SDS011;36207;51.850;21.698;2023-04-25T09:21:58;8.00;;;6.70;;
50309;SDS011;36207;51.850;21.698;2023-04-25T09:24:44;10.00;;;7.20;;
50309;SDS011;36207;51.850;21.698;2023-04-25T09:27:12;8.40;;;7.40;;
50309;SDS011;36207;51.850;21.698;2023-04-25T09:29:43;11.00;;;7.50;;
50309;SDS011;36207;51.850;21.698;2023-04-25T09:32:29;8.90;;;7.20;;
50309;SDS011;36207;51.850;21.698;2023-04-25T09:34:56;10.10;;;7.50;;
50309;SDS011;36207;51.850;21.698;2023-04-25T09:37:27;10.30;;;8.10;;
50309;SDS011;36207;51.850;21.698;2023-04-25T09:39:58;9.50;;;7.60;;
50309;SDS011;36207;51.850;21.698;2023-04-25T09:42:28;9.10;;;7.70;;
50309;SDS011;36207;51.850;21.698;2023-04-25T09:44:57;9.00;;;7.00;;
50309;SDS011;36207;51.850;21.698;2023-04-25T09:47:25;10.10;;;7.30;;
50309;SDS011;36207;51.850;21.698;2023-04-25T09:49:52;9.60;;;7.40;;
50309;SDS011;36207;51.850;21.698;2023-04-25T09:52:20;9.90;;;6.70;;
50309;SDS011;36207;51.850;21.698;2023-04-25T09:54:48;11.70;;;7.70;;
50309;SDS011;36207;51.850;21.698;2023-04-25T09:59:50;8.40;;;7.30;;
50309;SDS011;36207;51.850;21.698;2023-04-25T10:02:19;10.20;;;7.50;;
50309;SDS011;36207;51.850;21.698;2023-04-25T10:04:48;9.50;;;7.30;;
50309;SDS011;36207;51.850;21.698;2023-04-25T10:07:18;10.30;;;7.90;;
50309;SDS011;36207;51.850;21.698;2023-04-25T10:09:47;11.10;;;7.30;;
50309;SDS011;36207;51.850;21.698;2023-04-25T10:12:18;9.80;;;7.70;;
50309;SDS011;36207;51.850;21.698;2023-04-25T10:14:45;9.70;;;7.00;;
50309;SDS011;36207;51.850;21.698;2023-04-25T10:17:13;8.80;;;6.50;;
50309;SDS011;36207;51.850;21.698;2023-04-25T10:19:41;10.20;;;6.90;;
50309;SDS011;36207;51.850;21.698;2023-04-25T10:22:08;8.60;;;6.90;;
50309;SDS011;36207;51.850;21.698;2023-04-25T10:24:40;10.50;;;7.10;;
50309;SDS011;36207;51.850;21.698;2023-04-25T10:27:08;8.30;;;7.00;;
50309;SDS011;36207;51.850;21.698;2023-04-25T10:29:35;9.20;;;7.30;;
50309;SDS011;36207;51.850;21.698;2023-04-25T10:32:01;9.30;;;7.80;;
50309;SDS011;36207;51.850;21.698;2023-04-25T10:34:40;9.90;;;7.40;;
50309;SDS011;36207;51.850;21.698;2023-04-25T10:37:09;9.30;;;8.00;;
50309;SDS011;36207;51.850;21.698;2023-04-25T10:39:37;9.40;;;8.10;;
50309;SDS011;36207;51.850;21.698;2023-04-25T10:42:08;9.80;;;7.20;;
50309;SDS011;36207;51.850;21.698;2023-04-25T10:44:34;9.70;;;7.30;;
50309;SDS011;36207;51.850;21.698;2023-04-25T10:47:07;9.80;;;7.10;;
50309;SDS011;36207;51.850;21.698;2023-04-25T10:49:36;8.40;;;6.60;;
50309;SDS011;36207;51.850;21.698;2023-04-25T10:55:06;11.90;;;8.50;;
50309;SDS011;36207;51.850;21.698;2023-04-25T10:57:39;12.50;;;8.50;;
50309;SDS011;36207;51.850;21.698;2023-04-25T11:00:08;11.40;;;8.40;;
50309;SDS011;36207;51.850;21.698;2023-04-25T11:02:43;8.50;;;7.20;;
50309;SDS011;36207;51.850;21.698;2023-04-25T11:05:20;10.20;;;7.50;;
50309;SDS011;36207;51.850;21.698;2023-04-25T11:08:11;11.30;;;7.60;;
50309;SDS011;36207;51.850;21.698;2023-04-25T11:10:39;11.70;;;8.70;;
50309;SDS011;36207;51.850;21.698;2023-04-25T11:13:06;10.30;;;8.00;;
50309;SDS011;36207;51.850;21.698;2023-04-25T11:15:32;9.00;;;7.90;;
50309;SDS011;36207;51.850;21.698;2023-04-25T11:17:58;10.60;;;7.40;;
50309;SDS011;36207;51.850;21.698;2023-04-25T11:20:25;9.10;;;7.30;;
50309;SDS011;36207;51.850;21.698;2023-04-25T11:22:54;8.40;;;7.50;;
50309;SDS011;36207;51.850;21.698;2023-04-25T11:25:24;10.70;;;7.60;;
50309;SDS011;36207;51.850;21.698;2023-04-25T11:27:58;10.80;;;8.00;;
50309;SDS011;36207;51.850;21.698;2023-04-25T11:30:27;9.70;;;8.40;;
50309;SDS011;36207;51.850;21.698;2023-04-25T11:32:56;10.30;;;8.10;;
50309;SDS011;36207;51.850;21.698;2023-04-25T11:35:22;10.20;;;8.40;;
50309;SDS011;36207;51.850;21.698;2023-04-25T11:37:51;10.00;;;8.50;;
50309;SDS011;36207;51.850;21.698;2023-04-25T11:40:17;10.90;;;7.80;;
50309;SDS011;36207;51.850;21.698;2023-04-25T11:42:45;10.30;;;8.50;;
50309;SDS011;36207;51.850;21.698;2023-04-25T11:45:12;10.20;;;7.90;;
50309;SDS011;36207;51.850;21.698;2023-04-25T11:47:40;9.80;;;7.90;;
50309;SDS011;36207;51.850;21.698;2023-04-25T11:50:07;10.30;;;8.20;;
50309;SDS011;36207;51.850;21.698;2023-04-25T11:52:41;10.70;;;8.50;;
50309;SDS011;36207;51.850;21.698;2023-04-25T11:55:09;10.90;;;9.10;;
50309;SDS011;36207;51.850;21.698;2023-04-25T11:57:40;11.50;;;8.80;;
50309;SDS011;36207;51.850;21.698;2023-04-25T12:00:20;10.50;;;8.50;;
50309;SDS011;36207;51.850;21.698;2023-04-25T12:02:55;10.20;;;8.20;;
50309;SDS011;36207;51.850;21.698;2023-04-25T12:05:26;9.20;;;7.60;;
50309;SDS011;36207;51.850;21.698;2023-04-25T12:07:54;9.90;;;8.30;;
50309;SDS011;36207;51.850;21.698;2023-04-25T12:10:21;10.80;;;8.00;;
50309;SDS011;36207;51.850;21.698;2023-04-25T12:12:48;9.80;;;8.20;;
50309;SDS011;36207;51.850;21.698;2023-04-25T12:15:15;11.30;;;9.10;;
50309;SDS011;36207;51.850;21.698;2023-04-25T12:17:48;10.80;;;8.90;;
50309;SDS011;36207;51.850;21.698;2023-04-25T12:20:17;11.70;;;8.50;;
50309;SDS011;36207;51.850;21.698;2023-04-25T12:22:51;11.60;;;9.30;;
50309;SDS011;36207;51.850;21.698;2023-04-25T12:25:34;12.30;;;9.00;;
50309;SDS011;36207;51.850;21.698;2023-04-25T12:28:18;11.30;;;9.40;;
50309;SDS011;36207;51.850;21.698;2023-04-25T12:30:53;11.00;;;9.70;;
50309;SDS011;36207;51.850;21.698;2023-04-25T12:33:21;10.80;;;9.30;;
50309;SDS011;36207;51.850;21.698;2023-04-25T12:35:51;13.30;;;10.30;;
50309;SDS011;36207;51.850;21.698;2023-04-25T12:38:25;16.20;;;10.30;;
50309;SDS011;36207;51.850;21.698;2023-04-25T12:40:55;12.90;;;10.50;;
50309;SDS011;36207;51.850;21.698;2023-04-25T12:43:21;12.40;;;10.40;;
50309;SDS011;36207;51.850;21.698;2023-04-25T12:45:52;14.60;;;10.90;;
50309;SDS011;36207;51.850;21.698;2023-04-25T12:48:20;13.40;;;11.10;;
50309;SDS011;36207;51.850;21.698;2023-04-25T12:50:47;14.90;;;10.90;;
50309;SDS011;36207;51.850;21.698;2023-04-25T12:53:18;12.90;;;10.20;;
50309;SDS011;36207;51.850;21.698;2023-04-25T12:55:46;12.60;;;10.30;;
50309;SDS011;36207;51.850;21.698;2023-04-25T12:58:16;11.80;;;10.10;;
50309;SDS011;36207;51.850;21.698;2023-04-25T13:00:44;11.90;;;10.60;;
50309;SDS011;36207;51.850;21.698;2023-04-25T13:03:11;12.10;;;10.10;;
50309;SDS011;36207;51.850;21.698;2023-04-25T13:05:38;11.30;;;9.60;;
50309;SDS011;36207;51.850;21.698;2023-04-25T13:08:05;12.00;;;10.00;;
50309;SDS011;36207;51.850;21.698;2023-04-25T13:10:31;11.60;;;9.60;;
50309;SDS011;36207;51.850;21.698;2023-04-25T13:12:59;12.00;;;10.10;;
50309;SDS011;36207;51.850;21.698;2023-04-25T13:15:27;12.60;;;9.50;;
50309;SDS011;36207;51.850;21.698;2023-04-25T13:17:53;13.00;;;9.60;;
50309;SDS011;36207;51.850;21.698;2023-04-25T13:20:19;12.20;;;9.50;;
50309;SDS011;36207;51.850;21.698;2023-04-25T13:22:48;12.00;;;9.60;;
50309;SDS011;36207;51.850;21.698;2023-04-25T13:25:14;12.00;;;9.90;;
50309;SDS011;36207;51.850;21.698;2023-04-25T13:27:42;11.20;;;9.60;;
50309;SDS011;36207;51.850;21.698;2023-04-25T13:30:10;12.50;;;9.80;;
50309;SDS011;36207;51.850;21.698;2023-04-25T13:32:38;10.80;;;9.70;;
50309;SDS011;36207;51.850;21.698;2023-04-25T13:35:05;13.60;;;9.70;;
50309;SDS011;36207;51.850;21.698;2023-04-25T13:37:36;12.20;;;10.40;;
50309;SDS011;36207;51.850;21.698;2023-04-25T13:40:05;14.50;;;10.70;;
50309;SDS011;36207;51.850;21.698;2023-04-25T13:42:37;16.00;;;11.70;;
50309;SDS011;36207;51.850;21.698;2023-04-25T13:45:05;14.20;;;11.00;;
50309;SDS011;36207;51.850;21.698;2023-04-25T13:47:32;14.00;;;10.20;;
50309;SDS011;36207;51.850;21.698;2023-04-25T13:50:01;12.90;;;10.30;;
50309;SDS011;36207;51.850;21.698;2023-04-25T13:52:29;14.00;;;11.30;;
50309;SDS011;36207;51.850;21.698;2023-04-25T13:54:55;14.10;;;11.00;;
50309;SDS011;36207;51.850;21.698;2023-04-25T13:57:22;15.00;;;10.50;;
50309;SDS011;36207;51.850;21.698;2023-04-25T13:59:48;13.80;;;10.80;;
50309;SDS011;36207;51.850;21.698;2023-04-25T14:02:15;12.60;;;10.40;;
50309;SDS011;36207;51.850;21.698;2023-04-25T14:04:41;11.60;;;9.90;;
50309;SDS011;36207;51.850;21.698;2023-04-25T14:07:08;11.90;;;9.70;;
50309;SDS011;36207;51.850;21.698;2023-04-25T14:09:35;12.40;;;10.10;;
50309;SDS011;36207;51.850;21.698;2023-04-25T14:12:01;12.60;;;9.90;;
50309;SDS011;36207;51.850;21.698;2023-04-25T14:14:28;14.00;;;10.40;;
50309;SDS011;36207;51.850;21.698;2023-04-25T14:16:54;11.70;;;9.90;;
50309;SDS011;36207;51.850;21.698;2023-04-25T14:19:20;12.20;;;9.90;;
50309;SDS011;36207;51.850;21.698;2023-04-25T14:21:47;13.20;;;9.60;;
50309;SDS011;36207;51.850;21.698;2023-04-25T14:24:13;13.70;;;9.90;;
50309;SDS011;36207;51.850;21.698;2023-04-25T14:26:40;11.90;;;10.10;;